Weather Top, Arizona (BMGR) Weather observations

Data are for 10 minute period ending at time listed.
 Day   Time   Solar   Ave.   Ave.  Ave.  Vector  Max.   Total    
  of    of     Rad.   Air    Rel.  Wind   Wind   Wind  Precip.   
Year   Day            Temp.  Hum.  Speed  Dir.   Gust            
2026   (MST)  Kw/m2    F      %     mph   deg.    mph    in.     
-----------------------------------------------------------------
 247   11:35   0.85   90.7    31    8.3   208    16.6    0.00 
 247   11:40   0.85   91.5    29   10.7   200    18.3    0.00 
 247   11:45   0.81   90.9    28    9.4   212    14.4    0.00 
 247   11:50   0.87   91.0    28   10.7   204    16.0    0.00 
 247   11:55   0.77   91.8    29    7.1   196    17.2    0.00 
 247   12:00   0.87   92.5    28   10.8   211    18.9    0.00 
 247   12:05   0.88   91.7    29    8.8   212    17.7    0.00 
 247   12:10   0.89   91.7    29   11.1   196    20.0    0.00 
 247   12:15   0.88   92.0    29    9.5   219    16.0    0.00 
 247   12:20   0.90   92.1    30    6.7   224    13.3    0.00 
 247   12:25   0.90   93.0    29    7.9   194    14.4    0.00 
 247   12:30   0.91   93.1    28    6.8   191    12.7    0.00 
 247   12:35   0.93   94.4    28    8.5   180    13.8    0.00 
 247   12:40   0.94   93.8    28    8.4   220    13.3    0.00 
 247   12:45   0.94   93.0    28   10.4   194    16.0    0.00 
 247   12:50   0.91   93.2    28    8.6   175    13.8    0.00 
 247   12:55   0.90   96.1    25    5.5    82     9.9    0.00 
 247   13:00   0.90   97.3    24    8.3   236    16.6    0.00 
 247   13:05   0.90   93.6    26    8.4   237    16.0    0.00 
 247   13:10   0.90   92.9    27    6.3   224    15.5    0.00 
 247   13:15   0.92   93.8    26   10.5   234    17.2    0.00 
 247   13:20   0.72   94.6    26    8.6   225    14.9    0.00 
 247   13:25   0.74   93.8    27    7.2   200    14.4    0.00 
 247   13:30   0.89   95.3    26    5.3   206    12.1    0.00 
 247   13:35   0.90   96.6    25    5.6   172    13.8    0.00 
 247   13:40   0.89   96.2    25    8.8   215    14.4    0.00 
 247   13:45   0.38   94.5    26    5.7   213    13.3    0.00 
 247   13:50   0.67   94.4    26    8.7   208    15.5    0.00 
 247   13:55   0.39   92.8    27    7.7   207    12.7    0.00 
 247   14:00   0.90   94.1    25    5.8   209    11.0    0.00 
 247   14:05   0.93   95.2    25    6.9   228    12.7    0.00 
 247   14:10   0.90   96.6    24    9.3   214    17.7    0.00 
 247   14:15   0.85   94.6    25   11.1   239    16.6    0.00 
 247   14:20   0.83   94.3    27    9.9   234    17.2    0.00 
 247   14:25   0.78   95.4    26    5.0   174    10.5    0.00 
 247   14:30   0.83   98.9    23    5.1   102    11.6    0.00 
 247   14:35   0.79   99.0    22    5.2    93    11.0    0.00 
 247   14:40   0.77   97.3    24    5.1    92    11.0    0.00 
 247   14:45   0.76   96.7    24    7.8   219    13.3    0.00 
 247   14:50   0.61   96.0    24    9.0   219    17.7    0.00 
 247   14:55   0.57   94.7    25    5.3   234    12.7    0.00 
 247   15:00   0.71   95.3    25   10.0   216    14.4    0.00 
 247   15:05   0.71   96.1    25    8.1   213    15.5    0.00 
 247   15:10   0.70   96.6    25    7.3   193    16.0    0.00 
 247   15:15   0.69   96.9    25    5.2   170     9.9    0.00 
 247   15:20   0.68   96.6    25    9.4   190    17.2    0.00 
 247   15:25   0.62   95.9    25   11.1   228    17.2    0.00 
 247   15:30   0.36   95.1    25    8.5   218    13.3    0.00 
 247   15:35   0.39   94.4    26    8.4   237    13.8    0.00 
 247   15:40   0.60   94.6    26    8.2   224    16.0    0.00 
 247   15:45   0.18   95.0    27    7.5   200    14.9    0.00 
 247   15:50   0.18   93.1    27    8.6   218    16.0    0.00 
 247   15:55   0.58   93.1    28   10.6   235    17.7    0.00 
 247   16:00   0.47   94.3    27    8.8   217    16.0    0.00 
 247   16:05   0.12   93.0    29    8.8   235    13.3    0.00 
 247   16:10   0.29   92.5    29    8.4   228    13.3    0.00 
 247   16:15   0.50   93.4    29    9.9   215    17.2    0.00 
 247   16:20   0.25   93.1    29    9.5   225    17.7    0.00 
 247   16:25   0.29   92.9    29    7.5   212    13.3    0.00 
 247   16:30   0.47   94.3    28   10.1   221    17.2    0.00 
 247   16:35   0.47   93.7    28    9.2   226    15.5    0.00 
 247   16:40   0.42   94.8    27    6.7   221    12.7    0.00 
 247   16:45   0.39   94.9    26    8.9   236    15.5    0.00 
 247   16:50   0.37   94.9    26    5.6   117    12.1    0.00 
 247   16:55   0.34   94.5    26    8.1   206    16.6    0.00 
 247   17:00   0.27   94.0    27    6.6   192    11.6    0.00 
 247   17:05   0.32   94.6    26    5.4   118     9.3    0.00 
 247   17:10   0.30   94.1    26    5.3   101    10.5    0.00 
 247   17:15   0.27   94.2    26    6.0   177    14.9    0.00 
 247   17:20   0.25   93.5    26    6.2   139    13.3    0.00 
 247   17:25   0.24   93.7    26    5.6    73    11.6    0.00 
 247   17:30   0.22   93.5    26    5.3   183    11.0    0.00 
 247   17:35   0.21   93.2    26    8.8   235    14.4    0.00 
 247   17:40   0.19   92.3    27    8.3   220    12.7    0.00 
 247   17:45   0.18   93.1    26    7.6   212    12.7    0.00 
 247   17:50   0.16   93.0    26    6.7   223    12.1    0.00 
 247   17:55   0.15   92.6    26    5.9   193    14.4    0.00 
 247   18:00   0.13   92.3    26    6.6   226    12.7    0.00 
 247   18:05   0.12   92.1    26    5.1    91    11.6    0.00 
 247   18:10   0.10   92.0    27    4.5   139     8.8    0.00 
 247   18:15   0.09   92.2    27    4.2   181     8.8    0.00 
 247   18:20   0.07   91.8    28    6.4   222    12.1    0.00 
 247   18:25   0.05   91.0    29    7.2   222    14.4    0.00 
 247   18:30   0.05   90.2    30   10.4   233    16.6    0.00 
 247   18:35   0.02   89.5    30   10.9   227    19.4    0.00 
 247   18:40   0.01   89.3    30    9.1   230    13.8    0.00 
 247   18:45   0.01   89.2    30    9.1   229    12.7    0.00 
 247   18:50   0.01   89.0    30    9.9   226    15.5    0.00 
 247   18:55   0.00   88.7    31    9.1   235    14.4    0.00 
 247   19:00   0.00   88.4    31    9.2   232    14.4    0.00 
 247   19:05   0.00   88.1    32    9.8   230    15.5    0.00 
 247   19:10   0.00   88.1    32    8.2   228    11.6    0.00 
 247   19:15   0.00   88.0    32    7.9   227    15.5    0.00 
 247   19:20   0.00   87.8    32    8.8   227    15.5    0.00 
 247   19:25   0.00   87.6    32    8.8   230    12.1    0.00 
 247   19:30   0.00   87.4    32    8.2   231    12.1    0.00 
 247   19:35   0.00   87.3    33    8.3   230    13.8    0.00 
 247   19:40   0.00   87.2    33    9.6   230    15.5    0.00 
 247   19:45   0.00   87.0    33    9.5   237    12.7    0.00 
 247   19:50   0.00   86.9    34    8.7   230    12.7    0.00 
 247   19:55   0.00   86.7    34    8.2   229    12.7    0.00 
 247   20:00   0.00   86.5    34    8.6   228    13.3    0.00 
 247   20:05   0.00   86.3    35    8.0   228    13.3    0.00 
 247   20:10   0.00   86.1    35    6.9   212    11.6    0.00 
 247   20:15   0.00   86.0    36    7.5   227    13.3    0.00 
 247   20:20   0.00   85.8    36    6.1   223    10.5    0.00 
 247   20:25   0.00   85.7    36    7.0   230    12.1    0.00 
 247   20:30   0.00   85.6    36    7.7   230    12.7    0.00 
 247   20:35   0.00   85.6    36    8.9   233    11.6    0.00 
 247   20:40   0.00   85.5    36    8.5   223    12.7    0.00 
 247   20:45   0.00   85.4    36    8.0   226    12.7    0.00 
 247   20:50   0.00   85.3    36    7.3   223    11.6    0.00 
 247   20:55   0.00   85.2    36    6.9   224    16.0    0.00 
 247   21:00   0.00   85.1    36    6.4   222    13.3    0.00 
 247   21:05   0.00   85.0    36    5.6   224     9.9    0.00 
 247   21:10   0.00   84.9    36    6.1   230    12.7    0.00 
 247   21:15   0.00   84.8    36    6.1   219    12.7    0.00 
 247   21:20   0.00   84.8    36    5.7   212     8.8    0.00 
 247   21:25   0.00   84.7    36    6.4   223    13.3    0.00 
 247   21:30   0.00   84.6    36    6.7   217    13.8    0.00 
 247   21:35   0.00   84.4    36    6.1   209    10.5    0.00 
 247   21:40   0.00   84.2    36    6.0   210     9.9    0.00 
 247   21:45   0.00   84.1    36    6.6   205    11.0    0.00 
 247   21:50   0.00   84.2    36    6.6   212    11.6    0.00 
 247   21:55   0.00   84.2    36    7.7   212    11.6    0.00 
 247   22:00   0.00   84.1    36    7.2   206    10.5    0.00 
 247   22:05   0.00   83.9    37    6.5   201    10.5    0.00 
 247   22:10   0.00   83.9    37    6.2   202     9.3    0.00 
 247   22:15   0.00   83.9    37    7.0   206     9.9    0.00 
 247   22:20   0.00   83.8    37    6.2   203     9.3    0.00 
 247   22:25   0.00   83.9    37    6.2   206     9.9    0.00 
 247   22:30   0.00   83.9    37    6.0   205     8.8    0.00 
 247   22:35   0.00   83.8    37    5.8   204     8.2    0.00 
 247   22:40   0.00   83.9    37    6.3   212     8.8    0.00 
 247   22:45   0.00   83.8    37    5.7   214     9.3    0.00 
 247   22:50   0.00   83.9    37    5.6   222     8.2    0.00 
 247   22:55   0.00   83.8    37    5.1   225     8.8    0.00 
 247   23:00   0.00   83.5    37    4.9   220     8.8    0.00 
 247   23:05   0.00   83.4    37    5.5   216     7.7    0.00 
 247   23:10   0.00   83.5    37    6.6   214     9.3    0.00 
 247   23:15   0.00   83.5    37    5.9   208     9.3    0.00 
 247   23:20   0.00   83.4    37    5.6   207     8.2    0.00 
 247   23:25   0.00   83.2    37    4.2   186     7.1    0.00 
 247   23:30   0.00   82.6    38    2.9   163     4.9    0.00 
 247   23:35   0.00   82.5    38    3.2   146     5.4    0.00 
 247   23:40   0.00   82.5    38    3.3   152     5.4    0.00 
 247   23:45   0.00   82.4    38    3.6   155     5.4    0.00 
 247   23:50   0.00   82.5    38    3.6   165     5.4    0.00 
 247   23:55   0.00   82.6    38    4.1   164     6.5    0.00 
 248    0:00   0.00   82.8    38    5.1   171     8.2    0.00 
 248    0:05   0.00   82.7    38    4.4   177     7.1    0.00 
 248    0:10   0.00   82.4    38    4.0   177     6.0    0.00 
 248    0:15   0.00   82.4    38    5.3   184     7.7    0.00 
 248    0:20   0.00   82.6    38    5.6   191     9.3    0.00 
 248    0:25   0.00   82.7    38    5.2   195     8.2    0.00 
 248    0:30   0.00   82.8    38    5.6   203     8.8    0.00 
 248    0:35   0.00   82.9    38    5.4   202     7.7    0.00 
 248    0:40   0.00   83.0    38    6.2   204    10.5    0.00 
 248    0:45   0.00   82.8    39    5.1   207     7.7    0.00 
 248    0:50   0.00   82.9    39    5.4   216     8.8    0.00 
 248    0:55   0.00   83.0    39    4.8   216     9.3    0.00 
 248    1:00   0.00   82.9    39    5.0   216     8.8    0.00 
 248    1:05   0.00   82.9    39    4.8   214     8.2    0.00 
 248    1:10   0.00   82.8    39    5.3   221     8.2    0.00 
 248    1:15   0.00   82.9    39    6.2   224    12.7    0.00 
 248    1:20   0.00   82.8    39    5.9   232    12.1    0.00 
 248    1:25   0.00   82.7    39    6.4   229    11.6    0.00 
 248    1:30   0.00   82.3    39    5.7   226     9.3    0.00 
 248    1:35   0.00   82.0    39    5.7   222    10.5    0.00 
 248    1:40   0.00   81.9    40    5.4   227     8.8    0.00 
 248    1:45   0.00   81.7    40    4.2   229     7.7    0.00 
 248    1:50   0.00   81.7    40    5.0   224     7.7    0.00 
 248    1:55   0.00   81.5    40    4.9   210     7.7    0.00 
 248    2:00   0.00   81.2    41    5.4   205    10.5    0.00 
 248    2:05   0.00   81.1    41    6.1   220     8.8    0.00 
 248    2:10   0.00   81.0    41    4.4   226     8.2    0.00 
 248    2:15   0.00   80.8    42    4.1   235     7.1    0.00 
 248    2:20   0.00   80.8    42    4.3   231     7.7    0.00 
 248    2:25   0.00   80.7    42    4.5   232     7.7    0.00 
 248    2:30   0.00   80.6    42    2.5   235     7.7    0.00 
 248    2:35   0.00   80.2    42    2.7   234     6.5    0.00 
 248    2:40   0.00   80.0    42    3.9   232     7.7    0.00 
 248    2:45   0.00   80.3    41    5.6   236     9.9    0.00 
 248    2:50   0.00   80.5    41    4.9   230     7.7    0.00 
 248    2:55   0.00   80.7    41    4.3   226     6.5    0.00 
 248    3:00   0.00   80.7    41    5.4   219     9.3    0.00 
 248    3:05   0.00   80.5    41    5.3   198     8.2    0.00 
 248    3:10   0.00   80.2    41    4.8   176     9.3    0.00 
 248    3:15   0.00   79.9    42    3.8   133     5.4    0.00 
 248    3:20   0.00   79.9    42    5.1   123     7.1    0.00 
 248    3:25   0.00   80.0    42    5.5   124     8.2    0.00 
 248    3:30   0.00   80.0    42    5.6   112     8.8    0.00 
 248    3:35   0.00   79.9    42    3.4   135     6.0    0.00 
 248    3:40   0.00   79.9    42    3.6   155     6.0    0.00 
 248    3:45   0.00   80.0    42    4.2   200     7.1    0.00 
 248    3:50   0.00   80.1    42    5.1   204     8.2    0.00 
 248    3:55   0.00   80.2    42    4.8   213     7.7    0.00 
 248    4:00   0.00   80.0    42    3.5   234     6.5    0.00 
 248    4:05   0.00   80.0    42    3.8   243     6.0    0.00 
 248    4:10   0.00   80.0    42    4.5   223     8.2    0.00 
 248    4:15   0.00   80.4    41    5.3   220     8.8    0.00 
 248    4:20   0.00   80.3    41    4.4   228     6.5    0.00 
 248    4:25   0.00   80.2    41    3.0   230     4.9    0.00 
 248    4:30   0.00   80.0    41    3.1   220     6.0    0.00 
 248    4:35   0.00   80.2    40    4.5   206     6.0    0.00 
 248    4:40   0.00   80.4    40    3.7   203     6.0    0.00 
 248    4:45   0.00   80.5    39    4.2   204     7.1    0.00 
 248    4:50   0.00   80.6    39    4.7   187     7.1    0.00 
 248    4:55   0.00   80.4    39    4.8   183     7.1    0.00 
 248    5:00   0.00   80.3    40    4.1   168     6.5    0.00 
 248    5:05   0.00   80.2    40    3.0   149     5.4    0.00 
 248    5:10   0.00   80.1    40    2.3   166     3.8    0.00 
 248    5:15   0.00   80.2    40    0.1   199     2.1    0.00 
 248    5:20   0.00   80.2    40    1.4   206     3.2    0.00 
 248    5:25   0.00   80.0    40    3.1   194     4.3    0.00 
 248    5:30   0.00   80.3    38    3.7   201     5.4    0.00 
 248    5:35   0.00   80.8    37    4.4   210     6.5    0.00 
 248    5:40   0.00   80.9    37    4.0   198     6.0    0.00 
 248    5:45   0.00   80.9    37    4.2   206     6.0    0.00 
 248    5:50   0.00   80.8    38    3.0   195     4.3    0.00 
 248    5:55   0.00   80.5    38    2.3   172     3.8    0.00 
 248    6:00   0.00   80.2    39    1.8   128     2.6    0.00 
 248    6:05   0.00   79.8    40    2.2   106     3.8    0.00 
 248    6:10   0.00   79.7    40    3.1   100     3.8    0.00 
 248    6:15   0.01   79.7    41    3.5    87     4.3    0.00 
 248    6:20   0.02   79.8    40    4.0    83     4.9    0.00 
 248    6:25   0.03   79.7    40    4.4    86     4.9    0.00 
 248    6:30   0.04   79.8    40    3.7    90     4.9    0.00 
 248    6:35   0.06   80.3    39    3.7   102     4.3    0.00 
 248    6:40   0.06   80.5    38    3.8   107     4.9    0.00 
 248    6:45   0.08   80.8    37    3.2   120     4.9    0.00 
 248    6:50   0.13   81.3    37    2.1   121     3.8    0.00 
 248    6:55   0.10   81.6    36    1.3   143     2.6    0.00 
 248    7:00   0.10   81.4    36    2.5   149     3.8    0.00 
 248    7:05   0.16   81.3    37    2.8   140     4.3    0.00 
 248    7:10   0.13   81.5    36    3.3   141     4.3    0.00 
 248    7:15   0.13   81.3    37    3.2   134     4.9    0.00 
 248    7:20   0.17   81.3    38    3.6   109     4.9    0.00 
 248    7:25   0.19   81.7    38    3.9   100     5.4    0.00 
 248    7:30   0.25   81.7    37    5.2    95     7.1    0.00 
 248    7:35   0.26   81.9    38    5.6    98     7.7    0.00 
 248    7:40   0.24   81.8    38    6.2   103     8.2    0.00 
 248    7:45   0.29   82.1    38    5.8   106     8.2    0.00 
 248    7:50   0.34   82.6    38    5.5   109     7.1    0.00 
 248    7:55   0.32   82.7    38    5.2   110     7.1    0.00 
 248    8:00   0.32   83.2    37    4.8   113     6.5    0.00 
 248    8:05   0.35   83.8    36    4.5   110     6.5    0.00 
 248    8:10   0.42   83.9    36    5.4   118     7.7    0.00 
 248    8:15   0.40   84.3    35    5.1   125     7.1    0.00 
 248    8:20   0.41   84.7    34    4.3   152     7.1    0.00 
 248    8:25   0.36   85.2    32    3.6   154     6.0    0.00 
 248    8:30   0.38   85.2    32    4.1   176     6.5    0.00 
 248    8:35   0.35   85.3    33    3.6   152     6.5    0.00 
 248    8:40   0.36   85.1    34    2.8   148     6.0    0.00 
 248    8:45   0.38   85.8    33    2.5   206     6.0    0.00 
 248    8:50   0.39   85.5    34    2.9   203     6.0    0.00 
 248    8:55   0.45   85.2    34    3.2   179     6.0    0.00 
 248    9:00   0.42   85.7    34    2.4   168     7.1    0.00 
 248    9:05   0.50   86.5    33    1.7   177     4.3    0.00 
 248    9:10   0.48   86.5    34    2.4   192     6.0    0.00 
 248    9:15   0.44   86.3    34    2.5   165     6.0    0.00 
 248    9:20   0.49   85.9    34    2.0   167     5.4    0.00 
 248    9:25   0.46   86.4    34    1.6   142     4.9    0.00 
 248    9:30   0.53   87.1    32    1.9   160     4.9    0.00 
 248    9:35   0.59   87.4    32    1.9   182     6.5    0.00 
 248    9:40   0.51   87.6    32    2.6   193     7.1    0.00 
 248    9:45   0.54   87.8    32    2.5   178     6.0    0.00 
 248    9:50   0.55   87.2    32    0.6   102     3.8    0.00 
 248    9:55   0.54   89.0    31    2.8   148     8.2    0.00 
 248   10:00   0.55   89.9    30    2.8   151     6.5    0.00 
 248   10:05   0.62   90.3    30    3.5   192     7.1    0.00 
 248   10:10   0.65   88.7    31    2.7   147     6.0    0.00 
 248   10:15   0.55   90.4    30    2.1     1     6.0    0.00 
 248   10:20   0.66   90.0    30    2.7    18     7.1    0.00 
 248   10:25   0.72   89.6    31    3.5   236     7.7    0.00 
 248   10:30   0.79   89.8    30    4.5   226     9.3    0.00 
 248   10:35   0.70   89.5    30    4.8   216     9.3    0.00 
 248   10:40   0.79   89.0    30    3.7   199     7.1    0.00 
 248   10:45   0.72   89.1    30    4.0   183     7.1    0.00 
 248   10:50   0.85   90.0    30    3.8   224     7.7    0.00 
 248   10:55   0.82   91.1    29    5.2   216    11.6    0.00 
 248   11:00   0.63   89.9    29    2.7   139     6.5    0.00 
 248   11:05   0.69   91.2    29    2.5   223     6.0    0.00 
 248   11:10   0.88   91.1    29    1.5   109     4.9    0.00 
 248   11:15   0.85   91.9    28    2.6   218     7.7    0.00 
 248   11:20   0.74   91.4    28    4.4   196     8.8    0.00 
 248   11:25   0.71   91.1    28    3.5   191     7.7    0.00 
 248   11:30   0.71   90.6    29    3.1   281     6.0    0.00 

Return to Weather Top graphs page.


Western Regional Climate Center,wrcc@dri.edu